Time;durP1;ratioP1;P1;durP2;ratioP2;P2;SDS_P1;SDS_P2;PMS_P1;PMS_P2;Temp;Humidity;BMP_temperature;BMP_pressure;BME280_temperature;BME280_humidity;BME280_pressure;Samples;Min_cycle;Max_cycle;Signal;HPM_P1;HPM_P2
2021/05/18 00:00:21;;;;;;;16.97;6.27;;;12.00;94.10;;;;;;4996235;28;20179;-76
2021/05/18 00:02:46;;;;;;;10.97;5.57;;;12.00;94.90;;;;;;4996836;28;20209;-77
2021/05/18 00:05:14;;;;;;;17.90;7.27;;;12.00;94.80;;;;;;4996532;28;20702;-77
2021/05/18 00:07:47;;;;;;;13.47;6.17;;;11.90;95.40;;;;;;4996594;28;20233;-77
2021/05/18 00:12:59;;;;;;;18.07;6.63;;;11.90;96.20;;;;;;4995225;28;20187;-78
2021/05/18 00:15:25;;;;;;;15.70;7.03;;;11.90;95.70;;;;;;4995131;28;20270;-77
2021/05/18 00:17:50;;;;;;;17.97;7.20;;;11.90;95.60;;;;;;4995542;28;20624;-76
2021/05/18 00:20:18;;;;;;;13.27;6.90;;;11.90;96.50;;;;;;4996264;28;20198;-78
2021/05/18 00:22:45;;;;;;;16.87;7.13;;;11.80;97.10;;;;;;4996723;28;20250;-77
2021/05/18 00:25:12;;;;;;;15.97;7.23;;;11.80;98.10;;;;;;4995358;28;20202;-77
2021/05/18 00:27:38;;;;;;;12.93;6.73;;;11.80;98.20;;;;;;4996348;28;20175;-76
2021/05/18 00:30:05;;;;;;;14.53;7.23;;;11.80;98.80;;;;;;4994368;28;20301;-78
2021/05/18 00:32:31;;;;;;;16.50;6.53;;;11.90;98.70;;;;;;4995884;28;20190;-78
2021/05/18 00:34:57;;;;;;;15.13;6.40;;;11.80;99.60;;;;;;4994879;28;20179;-77
2021/05/18 00:37:24;;;;;;;18.43;7.20;;;11.90;98.70;;;;;;4995688;28;20538;-77
2021/05/18 00:39:51;;;;;;;17.90;7.50;;;11.80;99.40;;;;;;4995849;28;20175;-78
2021/05/18 00:42:19;;;;;;;17.97;7.70;;;11.80;99.90;;;;;;4995658;28;20572;-77
2021/05/18 00:44:45;;;;;;;19.93;6.90;;;11.70;99.90;;;;;;4995692;28;20280;-77
2021/05/18 00:47:11;;;;;;;22.33;7.87;;;11.80;99.90;;;;;;4995443;28;20175;-78
2021/05/18 00:49:37;;;;;;;16.67;6.87;;;11.80;99.90;;;;;;4995734;28;20707;-78
2021/05/18 00:52:05;;;;;;;17.40;6.80;;;11.80;99.90;;;;;;4995771;28;20179;-77
2021/05/18 00:54:39;;;;;;;16.97;7.63;;;11.90;99.90;;;;;;4995932;28;20572;-78
2021/05/18 00:59:49;;;;;;;19.43;6.77;;;11.60;99.90;;;;;;4996018;28;20193;-78
2021/05/18 01:02:15;;;;;;;17.00;6.80;;;11.70;99.90;;;;;;4995448;28;20612;-76
2021/05/18 01:04:43;;;;;;;17.07;6.37;;;11.70;99.90;;;;;;4993615;28;20202;-77
2021/05/18 01:07:10;;;;;;;15.50;6.80;;;11.60;99.90;;;;;;4992730;28;20639;-77
2021/05/18 01:09:35;;;;;;;14.70;6.87;;;11.50;99.90;;;;;;4995550;28;20655;-76
2021/05/18 01:12:01;;;;;;;16.17;7.27;;;11.50;99.90;;;;;;4994975;28;20170;-77
2021/05/18 01:14:27;;;;;;;14.53;6.90;;;11.50;99.90;;;;;;4994854;28;20229;-77
2021/05/18 01:16:53;;;;;;;14.03;6.43;;;11.50;99.90;;;;;;4994424;28;20580;-78
2021/05/18 01:19:22;;;;;;;16.23;7.43;;;11.50;99.90;;;;;;4995422;28;20175;-77
2021/05/18 01:21:48;;;;;;;11.80;7.17;;;11.50;99.90;;;;;;4995288;28;20189;-77
2021/05/18 01:24:15;;;;;;;21.10;7.63;;;11.60;99.90;;;;;;4995152;28;20685;-77
2021/05/18 01:26:41;;;;;;;15.40;7.03;;;11.70;99.90;;;;;;4994714;28;20183;-78
2021/05/18 01:29:09;;;;;;;13.70;7.30;;;11.70;99.90;;;;;;4995027;28;20553;-76
2021/05/18 01:31:36;;;;;;;16.67;7.37;;;11.70;99.90;;;;;;4994900;28;20167;-78
2021/05/18 01:34:03;;;;;;;17.70;7.93;;;11.70;99.90;;;;;;4995121;28;20640;-77
2021/05/18 01:36:32;;;;;;;18.93;7.30;;;11.70;99.90;;;;;;4994893;28;20640;-77
2021/05/18 01:44:09;;;;;;;21.30;7.20;;;11.60;99.90;;;;;;4994747;28;20174;-76
2021/05/18 01:46:35;;;;;;;18.93;6.93;;;11.70;99.90;;;;;;4994818;28;20163;-77
2021/05/18 01:49:09;;;;;;;18.93;7.50;;;11.70;99.90;;;;;;4994659;28;20647;-77
2021/05/18 01:51:38;;;;;;;19.60;7.57;;;11.70;99.90;;;;;;4993346;28;20170;-76
2021/05/18 01:54:16;;;;;;;19.00;7.87;;;11.70;99.90;;;;;;4994323;28;20171;-77
2021/05/18 01:59:12;;;;;;;13.13;7.40;;;11.50;99.90;;;;;;4994708;28;20183;-78
2021/05/18 02:01:39;;;;;;;16.60;7.83;;;11.50;99.90;;;;;;4994523;28;20631;-78
2021/05/18 02:04:06;;;;;;;28.33;9.00;;;11.60;99.90;;;;;;4994494;28;20167;-77
2021/05/18 02:06:33;;;;;;;18.43;8.70;;;11.70;99.90;;;;;;4994596;28;20175;-76
2021/05/18 02:08:59;;;;;;;19.80;7.60;;;11.60;99.90;;;;;;4994196;28;20249;-77
2021/05/18 02:11:25;;;;;;;18.20;9.20;;;11.60;99.90;;;;;;4994075;28;20293;-76
2021/05/18 02:13:53;;;;;;;25.60;8.53;;;11.60;99.90;;;;;;4994070;28;20255;-77
2021/05/18 02:16:29;;;;;;;22.57;8.17;;;11.80;99.90;;;;;;4994381;28;20167;-78
2021/05/18 02:19:18;;;;;;;18.93;8.43;;;11.80;99.90;;;;;;4994080;28;20682;-77
2021/05/18 02:21:55;;;;;;;22.20;8.83;;;11.80;99.90;;;;;;4993975;28;20167;-76
2021/05/18 02:24:45;;;;;;;20.70;8.47;;;11.90;99.90;;;;;;4993545;28;20167;-77
2021/05/18 02:27:11;;;;;;;22.33;9.30;;;11.90;99.90;;;;;;4993501;28;20187;-77
2021/05/18 02:29:37;;;;;;;17.53;8.53;;;11.90;99.90;;;;;;4993688;28;20601;-77
2021/05/18 02:32:03;;;;;;;24.73;9.47;;;11.90;99.90;;;;;;4993225;28;20202;-78
2021/05/18 02:34:29;;;;;;;20.77;9.13;;;11.80;99.90;;;;;;4993922;28;20182;-77
2021/05/18 02:36:55;;;;;;;17.70;8.67;;;11.70;99.90;;;;;;4993872;28;20631;-78
2021/05/18 02:39:21;;;;;;;20.53;8.93;;;11.80;99.90;;;;;;4992135;28;20213;-76
2021/05/18 02:41:46;;;;;;;26.97;10.00;;;11.80;99.90;;;;;;4993657;28;20671;-76
2021/05/18 02:44:25;;;;;;;21.37;9.53;;;11.90;99.90;;;;;;4993028;28;20833;-78
2021/05/18 02:49:35;;;;;;;21.27;9.03;;;11.80;99.90;;;;;;4993609;28;20226;-76
2021/05/18 02:52:02;;;;;;;22.77;9.63;;;11.70;99.90;;;;;;4992716;28;20167;-77
2021/05/18 02:54:28;;;;;;;20.63;9.63;;;11.70;99.90;;;;;;4993125;28;20182;-77
2021/05/18 02:57:02;;;;;;;18.23;9.27;;;11.70;99.90;;;;;;4993338;28;20175;-77
2021/05/18 02:59:28;;;;;;;23.27;9.20;;;11.80;99.90;;;;;;4993531;28;20258;-76
2021/05/18 03:02:00;;;;;;;19.73;9.53;;;11.70;99.90;;;;;;4993493;28;20249;-77
2021/05/18 03:04:28;;;;;;;18.90;8.90;;;11.60;99.90;;;;;;4993047;28;20167;-77
2021/05/18 03:06:54;;;;;;;18.40;9.10;;;11.70;99.90;;;;;;4993333;28;20171;-77
2021/05/18 03:09:22;;;;;;;21.43;8.90;;;11.70;99.90;;;;;;4992601;28;20194;-77
2021/05/18 03:11:50;;;;;;;19.27;9.20;;;11.70;99.90;;;;;;4993389;28;20171;-77
2021/05/18 03:14:17;;;;;;;17.93;9.00;;;11.80;99.90;;;;;;4993008;28;20178;-77
2021/05/18 03:16:46;;;;;;;20.37;9.70;;;11.80;99.90;;;;;;4993278;28;20175;-77
2021/05/18 03:19:13;;;;;;;24.80;9.20;;;11.90;99.90;;;;;;4992777;28;20205;-76
2021/05/18 03:21:41;;;;;;;19.97;8.53;;;12.00;99.90;;;;;;4993359;28;20178;-77
2021/05/18 03:24:08;;;;;;;21.20;9.23;;;11.90;99.90;;;;;;4991069;28;20186;-77
2021/05/18 03:26:35;;;;;;;18.60;8.87;;;11.90;99.90;;;;;;4993088;28;20321;-77
2021/05/18 03:29:25;;;;;;;17.17;8.43;;;11.90;99.90;;;;;;4993560;28;20206;-77
2021/05/18 03:34:35;;;;;;;18.77;9.97;;;11.90;99.90;;;;;;4996857;28;20291;-76
2021/05/18 03:37:16;;;;;;;22.73;10.77;;;12.00;99.90;;;;;;4996659;28;20197;-77
2021/05/18 03:39:44;;;;;;;20.60;9.50;;;12.10;99.90;;;;;;4996868;28;20171;-77
2021/05/18 03:42:23;;;;;;;24.40;10.87;;;12.00;99.90;;;;;;4996981;28;20571;-77
2021/05/18 03:45:04;;;;;;;24.73;10.03;;;11.90;99.90;;;;;;4996432;28;20186;-78
2021/05/18 04:04:14;;;;;;;17.83;9.67;;;11.80;99.90;;;;;;4996508;28;20190;-77
2021/05/18 04:17:24;;;;;;;21.57;9.53;;;11.80;99.90;;;;;;4996566;28;20271;-78
2021/05/18 04:20:41;;;;;;;22.50;9.47;;;11.90;99.90;;;;;;4996371;28;20685;-77
2021/05/18 04:51:55;;;;;;;19.83;10.07;;;11.90;99.90;;;;;;4995770;28;20252;-78
2021/05/18 04:59:58;;;;;;;24.27;9.83;;;12.00;99.90;;;;;;4995773;28;20186;-78
2021/05/18 05:08:15;;;;;;;22.73;9.27;;;12.00;99.90;;;;;;4994717;28;20258;-77
2021/05/18 05:15:42;;;;;;;17.43;8.73;;;12.00;99.90;;;;;;4995273;28;20176;-78
2021/05/18 05:18:08;;;;;;;19.87;8.80;;;12.00;99.90;;;;;;4994736;28;20187;-77
2021/05/18 05:20:35;;;;;;;25.30;10.03;;;11.80;99.90;;;;;;4994615;28;20194;-78
2021/05/18 05:23:01;;;;;;;16.40;8.70;;;11.90;99.90;;;;;;4994874;28;20196;-78
2021/05/18 05:25:27;;;;;;;20.97;9.17;;;12.00;99.90;;;;;;4994706;28;20187;-77
2021/05/18 05:27:52;;;;;;;18.70;8.40;;;12.00;99.90;;;;;;4994489;28;20293;-77
2021/05/18 05:30:18;;;;;;;18.87;8.47;;;12.00;99.90;;;;;;4994204;28;20211;-79
2021/05/18 05:32:44;;;;;;;15.90;8.30;;;12.10;99.90;;;;;;4994478;28;20186;-78
2021/05/18 05:35:10;;;;;;;17.70;7.87;;;12.00;99.90;;;;;;4993706;28;20655;-78
2021/05/18 05:37:36;;;;;;;18.60;8.70;;;12.10;99.90;;;;;;4994124;28;20178;-77
2021/05/18 05:40:04;;;;;;;18.23;8.13;;;12.20;99.90;;;;;;4994526;28;20541;-78
2021/05/18 05:42:29;;;;;;;19.43;7.23;;;12.20;99.90;;;;;;4994280;28;20171;-78
2021/05/18 05:44:55;;;;;;;17.77;8.67;;;12.30;99.90;;;;;;4994368;28;20182;-78
2021/05/18 05:47:21;;;;;;;17.57;6.87;;;12.30;99.90;;;;;;4993616;28;20186;-77
2021/05/18 05:49:46;;;;;;;16.30;6.47;;;12.40;99.90;;;;;;4993686;28;20221;-77
2021/05/18 05:52:18;;;;;;;14.27;7.73;;;12.40;99.90;;;;;;4992521;28;20195;-77
2021/05/18 05:54:44;;;;;;;16.90;7.33;;;12.40;99.90;;;;;;4993850;28;20253;-77
2021/05/18 05:57:10;;;;;;;15.87;7.40;;;12.30;99.90;;;;;;4994130;28;20219;-78
2021/05/18 05:59:36;;;;;;;11.20;5.70;;;12.30;99.90;;;;;;4993365;28;20182;-79
2021/05/18 06:02:03;;;;;;;15.70;6.70;;;12.30;99.90;;;;;;4993668;28;20202;-77
2021/05/18 06:04:30;;;;;;;15.60;6.53;;;12.40;99.60;;;;;;4992645;28;20234;-80
2021/05/18 06:06:56;;;;;;;10.47;5.40;;;12.30;99.20;;;;;;4993668;28;20171;-79
2021/05/18 06:09:22;;;;;;;9.50;5.43;;;12.20;99.10;;;;;;4993491;28;20202;-78
2021/05/18 06:14:33;;;;;;;9.37;5.40;;;12.10;99.90;;;;;;4993603;28;20178;-78
2021/05/18 06:17:24;;;;;;;12.73;5.80;;;12.10;99.90;;;;;;4993375;28;20611;-78
2021/05/18 06:49:00;;;;;;;13.20;6.77;;;12.60;99.90;;;;;;4993051;28;20721;-79
2021/05/18 06:51:26;;;;;;;12.80;6.90;;;12.70;98.90;;;;;;4993223;28;20183;-78
2021/05/18 06:53:52;;;;;;;14.27;6.77;;;12.70;98.60;;;;;;4992952;28;20183;-79
2021/05/18 06:56:18;;;;;;;12.90;6.27;;;12.70;98.50;;;;;;4991625;28;20186;-79
2021/05/18 07:01:09;;;;;;;16.43;6.07;;;12.80;98.40;;;;;;4992801;28;20171;-77
2021/05/18 07:03:41;;;;;;;13.23;6.50;;;12.80;97.60;;;;;;4991912;28;20194;-79
2021/05/18 07:11:00;;;;;;;14.23;5.37;;;12.70;96.70;;;;;;4992882;28;20373;-79
2021/05/18 07:13:26;;;;;;;12.50;5.93;;;12.60;96.90;;;;;;4993052;28;20166;-79
2021/05/18 07:15:52;;;;;;;10.30;6.20;;;12.60;98.40;;;;;;4992501;28;20239;-79
2021/05/18 07:18:17;;;;;;;17.30;6.80;;;12.70;98.00;;;;;;4991279;28;20177;-79
2021/05/18 07:20:43;;;;;;;15.43;6.60;;;12.70;97.20;;;;;;4992572;28;20222;-80
2021/05/18 07:23:11;;;;;;;15.10;6.87;;;12.70;97.10;;;;;;4992322;28;20167;-79
2021/05/18 07:25:37;;;;;;;11.67;6.73;;;12.70;97.00;;;;;;4991221;28;20210;-78
2021/05/18 07:28:06;;;;;;;14.90;7.07;;;12.70;96.70;;;;;;4993040;28;20179;-79
2021/05/18 07:30:37;;;;;;;12.20;7.00;;;12.70;97.30;;;;;;4991258;28;20256;-78
2021/05/18 07:33:03;;;;;;;13.10;7.57;;;12.70;97.40;;;;;;4992262;28;20175;-79
2021/05/18 07:35:29;;;;;;;11.43;6.97;;;12.70;97.00;;;;;;4992570;28;20179;-79
2021/05/18 07:37:54;;;;;;;13.13;7.17;;;12.70;96.90;;;;;;4992698;28;20171;-80
2021/05/18 07:40:20;;;;;;;12.30;7.00;;;12.70;96.80;;;;;;4992564;28;20177;-78
2021/05/18 07:42:51;;;;;;;11.93;8.57;;;12.90;96.50;;;;;;4992678;28;20186;-79
2021/05/18 07:45:27;;;;;;;11.00;7.53;;;13.00;94.30;;;;;;4992317;28;20179;-79
2021/05/18 07:47:58;;;;;;;11.90;8.40;;;13.10;94.00;;;;;;4992689;28;20173;-79
2021/05/18 07:50:35;;;;;;;11.60;7.93;;;13.20;93.80;;;;;;4992490;28;20234;-79
2021/05/18 08:07:01;;;;;;;11.23;10.03;;;13.20;86.00;;;;;;5002523;28;20575;-79
2021/05/18 08:09:27;;;;;;;13.37;9.93;;;13.10;85.00;;;;;;4992188;28;20206;-79
2021/05/18 08:11:53;;;;;;;14.23;9.90;;;13.30;87.30;;;;;;4992486;28;20527;-78
2021/05/18 08:14:21;;;;;;;10.27;9.23;;;13.40;86.20;;;;;;4992293;28;20178;-79
2021/05/18 10:21:55;;;;;;;8.50;4.40;;;15.60;1.00;;;;;;5002374;28;20614;-78
2021/05/18 10:35:38;;;;;;;5.70;2.73;;;15.90;1.00;;;;;;4993550;28;20172;-79
2021/05/18 10:38:06;;;;;;;3.80;2.60;;;15.60;1.00;;;;;;4991846;28;20183;-80
2021/05/18 10:40:35;;;;;;;4.47;2.70;;;15.80;1.00;;;;;;4993302;28;20182;-78
2021/05/18 10:43:08;;;;;;;4.40;2.50;;;15.70;1.00;;;;;;4991753;28;20541;-80
2021/05/18 10:46:02;;;;;;;4.70;2.20;;;15.80;1.00;;;;;;4993308;28;20178;-78
2021/05/18 10:48:31;;;;;;;5.70;2.63;;;15.70;1.00;;;;;;4993334;28;20258;-79
2021/05/18 10:50:58;;;;;;;3.70;2.40;;;15.70;1.00;;;;;;4991917;28;20530;-80
2021/05/18 10:53:27;;;;;;;5.77;3.40;;;15.70;1.00;;;;;;4992995;28;20247;-79
2021/05/18 10:56:09;;;;;;;5.10;3.43;;;15.70;1.00;;;;;;4993021;28;20179;-78
2021/05/18 10:58:35;;;;;;;5.83;2.90;;;15.80;1.00;;;;;;4992890;28;20180;-79
2021/05/18 11:01:02;;;;;;;3.60;2.83;;;15.70;1.00;;;;;;4993044;28;20189;-78
2021/05/18 11:03:28;;;;;;;5.03;2.93;;;15.50;1.00;;;;;;4992476;28;20204;-79
2021/05/18 11:05:53;;;;;;;3.80;2.23;;;15.50;1.00;;;;;;4992596;28;20216;-79
2021/05/18 11:08:19;;;;;;;4.70;3.00;;;15.70;1.00;;;;;;4992611;28;20593;-78
2021/05/18 11:10:46;;;;;;;3.47;2.30;;;16.10;1.00;;;;;;4992783;28;20697;-79
2021/05/18 11:13:13;;;;;;;4.00;2.97;;;16.20;1.00;;;;;;4991848;28;20198;-78
2021/05/18 11:15:39;;;;;;;5.00;2.40;;;16.20;1.00;;;;;;4992455;28;20610;-78
2021/05/18 11:18:05;;;;;;;3.00;2.40;;;16.20;1.00;;;;;;4992315;28;20184;-79
2021/05/18 11:23:26;;;;;;;3.93;2.43;;;16.10;1.00;;;;;;4992426;28;20195;-79
2021/05/18 11:26:04;;;;;;;3.60;2.13;;;16.20;1.00;;;;;;4992681;28;20183;-78
2021/05/18 11:28:47;;;;;;;4.40;2.47;;;16.00;1.00;;;;;;4993031;28;20174;-79
2021/05/18 11:31:23;;;;;;;3.67;2.00;;;16.00;1.00;;;;;;4992530;28;20190;-79
2021/05/18 11:33:52;;;;;;;5.60;2.80;;;15.90;1.00;;;;;;4993045;28;20197;-78
2021/05/18 11:36:28;;;;;;;3.57;1.87;;;16.00;1.00;;;;;;4992400;28;20175;-80
2021/05/18 11:38:55;;;;;;;5.20;2.17;;;16.00;1.00;;;;;;4991146;28;20198;-80
2021/05/18 11:41:37;;;;;;;3.50;2.27;;;16.00;1.00;;;;;;4991067;28;20237;-79
2021/05/18 11:44:06;;;;;;;4.17;2.00;;;16.10;1.00;;;;;;4992746;28;20164;-77
2021/05/18 11:46:34;;;;;;;3.50;2.40;;;16.20;1.00;;;;;;4992643;28;20214;-78
2021/05/18 11:49:08;;;;;;;3.33;1.97;;;16.40;1.00;;;;;;4992898;28;20171;-78
2021/05/18 11:51:54;;;;;;;4.33;2.57;;;16.50;1.00;;;;;;4995345;28;20282;-79
2021/05/18 11:54:27;;;;;;;4.10;2.13;;;16.50;1.00;;;;;;4996690;28;20167;-78
2021/05/18 11:56:53;;;;;;;3.97;2.40;;;16.60;1.00;;;;;;4995568;28;20550;-80
2021/05/18 11:59:21;;;;;;;5.33;2.90;;;16.80;1.00;;;;;;4996678;28;20205;-79
2021/05/18 12:02:00;;;;;;;5.13;2.10;;;16.80;1.00;;;;;;4998118;28;20256;-79
2021/05/18 12:04:27;;;;;;;4.53;2.07;;;16.50;1.00;;;;;;4999420;28;20151;-80
2021/05/18 12:07:04;;;;;;;3.00;1.90;;;16.40;1.00;;;;;;4998990;28;20249;-79
2021/05/18 12:09:35;;;;;;;3.60;1.77;;;16.30;99.90;;;;;;4996039;28;20297;-78
2021/05/18 12:12:07;;;;;;;2.87;1.90;;;16.40;99.90;;;;;;4994665;28;20175;-78
2021/05/18 12:14:41;;;;;;;3.50;1.80;;;16.60;99.90;;;;;;4996069;28;20242;-79
2021/05/18 12:17:06;;;;;;;2.57;1.90;;;16.80;99.90;;;;;;4994682;28;20204;-79
2021/05/18 12:19:32;;;;;;;2.60;1.97;;;17.00;99.90;;;;;;4995605;28;20648;-78
2021/05/18 12:21:58;;;;;;;2.67;1.80;;;17.30;99.90;;;;;;4996003;28;20221;-79
2021/05/18 12:24:26;;;;;;;3.97;2.20;;;17.40;99.90;;;;;;4995992;28;20182;-79
2021/05/18 12:27:03;;;;;;;3.20;1.60;;;17.50;99.90;;;;;;4996433;28;20194;-80
2021/05/18 12:29:36;;;;;;;3.20;1.80;;;17.10;1.00;;;;;;4995754;28;20336;-79
2021/05/18 12:32:22;;;;;;;3.73;1.80;;;17.10;99.90;;;;;;4996053;28;20171;-82
2021/05/18 12:34:50;;;;;;;3.93;2.13;;;17.20;99.90;;;;;;4995813;28;20251;-80
2021/05/18 12:37:17;;;;;;;4.67;2.00;;;17.10;1.00;;;;;;4995639;28;20202;-79
2021/05/18 12:39:46;;;;;;;2.07;1.30;;;16.90;99.90;;;;;;4996114;28;20250;-78
2021/05/18 12:42:24;;;;;;;3.20;1.50;;;16.80;1.00;;;;;;4995866;28;20170;-80
2021/05/18 12:44:56;;;;;;;2.00;1.50;;;16.90;99.90;;;;;;4996040;28;20649;-78
2021/05/18 12:47:26;;;;;;;2.37;1.30;;;17.00;99.90;;;;;;4995903;28;20258;-80
2021/05/18 12:49:52;;;;;;;5.13;1.53;;;17.00;99.90;;;;;;4995057;28;20202;-79
2021/05/18 12:52:18;;;;;;;3.40;1.60;;;17.00;99.90;;;;;;4994128;28;20193;-78
2021/05/18 12:54:49;;;;;;;4.63;1.60;;;16.90;99.90;;;;;;4995587;28;20183;-80
2021/05/18 12:57:18;;;;;;;3.40;1.77;;;17.00;99.90;;;;;;4995224;28;20176;-79
2021/05/18 13:00:00;;;;;;;4.03;1.77;;;16.80;99.90;;;;;;4995175;28;20167;-80
2021/05/18 13:02:31;;;;;;;3.80;1.60;;;16.80;99.90;;;;;;4994308;28;20190;-80
2021/05/18 13:05:16;;;;;;;2.53;1.00;;;16.80;1.00;;;;;;4994503;28;20267;-79
2021/05/18 13:07:44;;;;;;;5.27;2.27;;;16.90;1.00;;;;;;4995067;28;20163;-80
2021/05/18 13:10:27;;;;;;;3.17;1.60;;;16.90;99.90;;;;;;4993867;28;20617;-80
2021/05/18 13:13:02;;;;;;;2.60;1.30;;;17.00;89.90;;;;;;4993559;28;20182;-80
2021/05/18 13:15:28;;;;;;;3.43;1.80;;;17.20;99.90;;;;;;4996946;28;20176;-79
2021/05/18 13:17:56;;;;;;;3.00;1.27;;;17.30;1.00;;;;;;4996340;28;20269;-79
2021/05/18 13:20:22;;;;;;;3.37;1.83;;;17.30;36.50;;;;;;4995127;28;20234;-79
2021/05/18 13:22:55;;;;;;;3.57;1.40;;;17.40;23.30;;;;;;4994052;28;20179;-81
2021/05/18 13:28:05;;;;;;;2.67;1.23;;;17.00;99.90;;;;;;4995098;28;21422;-82
2021/05/18 13:30:32;;;;;;;2.63;1.50;;;17.00;11.40;;;;;;4993625;28;20211;-80
2021/05/18 13:32:58;;;;;;;3.73;1.67;;;17.10;99.90;;;;;;4995575;28;20175;-79
2021/05/18 13:35:28;;;;;;;3.73;1.33;;;17.30;1.00;;;;;;4994174;28;20182;-80
2021/05/18 13:37:54;;;;;;;1.90;1.20;;;17.30;1.00;;;;;;4995346;28;20195;-79
2021/05/18 13:40:20;;;;;;;4.57;1.60;;;17.10;99.90;;;;;;4994894;28;20706;-81
2021/05/18 13:42:51;;;;;;;2.27;1.10;;;17.00;99.90;;;;;;4993556;28;20337;-79
2021/05/18 13:45:18;;;;;;;3.73;1.77;;;17.00;14.70;;;;;;4993592;28;20748;-82
2021/05/18 13:47:44;;;;;;;3.17;1.40;;;17.10;99.90;;;;;;4994341;28;20178;-79
2021/05/18 13:50:10;;;;;;;2.80;1.37;;;17.00;99.90;;;;;;4994581;28;20602;-80
2021/05/18 13:52:36;;;;;;;3.53;1.43;;;17.10;45.80;;;;;;4994397;28;20167;-81
2021/05/18 13:55:02;;;;;;;2.73;1.27;;;17.00;99.90;;;;;;4994110;28;20181;-80
2021/05/18 13:57:27;;;;;;;2.10;1.17;;;17.00;1.00;;;;;;4993935;28;20170;-80
2021/05/18 13:59:54;;;;;;;5.17;1.53;;;17.20;1.00;;;;;;4994214;28;20202;-79
2021/05/18 14:02:19;;;;;;;1.57;1.10;;;17.30;1.00;;;;;;4994073;28;20192;-80
2021/05/18 14:04:46;;;;;;;2.13;1.20;;;17.30;1.00;;;;;;4992491;28;20186;-80
2021/05/18 14:07:38;;;;;;;3.70;1.40;;;17.20;99.90;;;;;;4992925;28;20650;-80
2021/05/18 14:10:04;;;;;;;3.67;1.30;;;17.30;1.00;;;;;;4993851;28;20297;-80
2021/05/18 14:12:29;;;;;;;2.53;1.20;;;17.00;1.00;;;;;;4992718;28;20178;-79
2021/05/18 14:14:55;;;;;;;3.43;1.67;;;17.00;1.00;;;;;;4993454;28;20178;-79
2021/05/18 14:17:20;;;;;;;3.00;1.50;;;17.10;99.90;;;;;;4994621;28;20182;-77
2021/05/18 14:19:46;;;;;;;3.50;1.10;;;17.40;1.00;;;;;;4992976;28;20214;-79
2021/05/18 14:22:12;;;;;;;5.00;1.20;;;17.40;1.00;;;;;;4993739;28;20202;-81
2021/05/18 14:25:11;;;;;;;2.23;1.50;;;17.40;99.90;;;;;;4993497;28;20175;-81
2021/05/18 14:27:34;;;;;;;2.77;1.53;;;17.20;99.90;;;;;;4994744;28;20202;-78
2021/05/18 14:29:59;;;;;;;2.13;1.20;;;17.20;1.00;;;;;;4992974;28;20216;-79
2021/05/18 14:32:25;;;;;;;3.83;1.40;;;17.50;99.90;;;;;;4993676;28;20172;-79
2021/05/18 14:34:52;;;;;;;3.80;1.30;;;17.60;99.90;;;;;;4993348;28;20646;-80
2021/05/18 14:37:18;;;;;;;1.93;1.23;;;17.40;99.90;;;;;;4993278;28;20174;-80
2021/05/18 14:45:08;;;;;;;1.60;0.90;;;17.40;99.90;;;;;;4993667;28;20198;-79
2021/05/18 14:55:54;;;;;;;4.47;1.40;;;17.30;99.90;;;;;;5004147;28;20188;-81
2021/05/18 14:58:21;;;;;;;4.10;1.67;;;17.70;1.00;;;;;;5003887;28;20183;-80
2021/05/18 15:00:46;;;;;;;3.60;1.10;;;18.00;99.90;;;;;;5003031;28;20592;-79
2021/05/18 15:03:12;;;;;;;2.17;1.10;;;17.80;99.90;;;;;;5001316;28;20207;-80
2021/05/18 15:05:39;;;;;;;2.47;1.10;;;17.80;1.00;;;;;;5010837;28;20181;-80
2021/05/18 15:08:05;;;;;;;3.47;1.40;;;17.60;81.10;;;;;;5011551;28;20178;-79
2021/05/18 15:10:32;;;;;;;1.47;1.00;;;17.70;1.00;;;;;;5011697;28;20206;-79
2021/05/18 15:12:58;;;;;;;4.70;1.80;;;18.10;1.00;;;;;;4994662;28;20627;-80
2021/05/18 15:15:25;;;;;;;2.70;1.13;;;18.10;1.00;;;;;;5003782;28;20183;-79
2021/05/18 15:17:53;;;;;;;4.13;1.23;;;18.10;1.00;;;;;;5007416;28;20190;-80
2021/05/18 15:20:19;;;;;;;1.87;1.10;;;17.90;1.00;;;;;;5006884;28;20277;-79
2021/05/18 15:22:45;;;;;;;2.00;1.00;;;17.90;99.90;;;;;;5003687;28;20171;-79
2021/05/18 15:25:11;;;;;;;3.47;1.40;;;17.70;99.90;;;;;;5002162;28;20732;-79
2021/05/18 15:27:37;;;;;;;3.80;1.40;;;17.70;99.90;;;;;;5006479;28;20224;-81
2021/05/18 15:30:08;;;;;;;1.83;1.40;;;17.70;99.90;;;;;;5015410;28;20233;-81
2021/05/18 15:32:34;;;;;;;2.37;1.20;;;17.70;1.00;;;;;;5012130;28;20667;-79
2021/05/18 15:35:00;;;;;;;2.70;1.40;;;17.70;1.00;;;;;;5013724;28;20298;-80
2021/05/18 15:37:26;;;;;;;1.90;1.10;;;17.80;99.90;;;;;;5015439;28;20181;-80
2021/05/18 15:39:52;;;;;;;2.93;1.50;;;18.10;34.80;;;;;;5014085;28;20186;-78
2021/05/18 15:42:19;;;;;;;2.13;1.30;;;18.20;19.60;;;;;;5015135;28;20183;-78
2021/05/18 15:44:44;;;;;;;2.53;1.33;;;18.50;1.00;;;;;;5015214;28;20167;-80
2021/05/18 15:47:10;;;;;;;4.23;1.47;;;18.50;1.00;;;;;;5014302;28;20264;-81
2021/05/18 15:49:36;;;;;;;3.87;1.50;;;18.70;99.90;;;;;;5015119;28;20741;-78
2021/05/18 15:52:02;;;;;;;2.53;1.20;;;18.70;99.90;;;;;;5015115;28;20680;-78
2021/05/18 15:54:28;;;;;;;2.73;1.50;;;18.50;1.00;;;;;;5005193;28;20182;-79
2021/05/18 15:56:54;;;;;;;2.07;1.40;;;18.20;57.10;;;;;;4995031;28;20273;-79
2021/05/18 15:59:19;;;;;;;2.60;1.20;;;18.20;99.90;;;;;;4996204;28;20182;-80
2021/05/18 16:01:45;;;;;;;1.90;1.20;;;18.10;1.00;;;;;;4995491;28;20187;-79
2021/05/18 16:04:11;;;;;;;2.60;1.53;;;18.00;9.40;;;;;;4995076;28;20428;-78
2021/05/18 16:06:43;;;;;;;2.40;1.30;;;17.80;99.90;;;;;;4994084;28;20185;-78
2021/05/18 16:09:12;;;;;;;2.67;1.40;;;17.90;1.00;;;;;;5011481;28;20182;-78
2021/05/18 16:11:39;;;;;;;3.40;1.37;;;17.70;99.90;;;;;;5014324;28;20200;-79
2021/05/18 16:14:05;;;;;;;3.97;1.70;;;17.60;1.00;;;;;;5013866;28;20205;-79
2021/05/18 16:16:31;;;;;;;4.23;1.37;;;17.90;50.70;;;;;;5011482;28;20663;-80
2021/05/18 16:18:57;;;;;;;2.50;1.43;;;18.10;1.00;;;;;;5004550;28;20691;-79
2021/05/18 16:21:24;;;;;;;3.00;1.40;;;18.00;99.90;;;;;;5013921;28;20254;-80
2021/05/18 16:23:51;;;;;;;2.93;1.40;;;18.00;1.00;;;;;;5008399;28;20207;-78
2021/05/18 16:26:29;;;;;;;3.93;1.53;;;17.80;1.00;;;;;;5008413;28;20187;-76
2021/05/18 16:28:55;;;;;;;3.00;1.50;;;17.70;99.90;;;;;;5014216;28;20170;-79
2021/05/18 16:31:23;;;;;;;3.90;1.83;;;17.60;1.00;;;;;;5010770;28;20213;-78
2021/05/18 16:33:49;;;;;;;2.70;1.60;;;17.80;1.00;;;;;;5002839;28;20637;-80
2021/05/18 16:36:16;;;;;;;3.37;1.40;;;18.00;39.00;;;;;;5003863;28;20225;-80
2021/05/18 16:38:42;;;;;;;3.27;1.50;;;18.30;1.00;;;;;;5004730;28;20654;-81
2021/05/18 16:41:09;;;;;;;4.10;1.40;;;18.50;1.00;;;;;;5002695;28;20189;-78
2021/05/18 16:43:35;;;;;;;5.07;2.17;;;18.80;1.00;;;;;;5007279;28;20209;-81
2021/05/18 16:46:03;;;;;;;2.63;1.50;;;18.70;1.00;;;;;;5007512;28;20176;-81
2021/05/18 16:48:29;;;;;;;3.90;1.50;;;18.60;1.00;;;;;;5013289;28;20178;-79
2021/05/18 16:51:00;;;;;;;7.70;3.30;;;18.60;99.90;;;;;;5013193;28;20699;-83
2021/05/18 16:53:27;;;;;;;6.77;3.20;;;18.70;99.90;;;;;;5011372;28;20228;-80
2021/05/18 16:55:53;;;;;;;4.90;2.30;;;18.60;99.90;;;;;;4993566;28;20182;-80
2021/05/18 16:58:19;;;;;;;6.40;2.90;;;18.60;99.90;;;;;;4994365;28;20184;-81
2021/05/18 17:00:45;;;;;;;4.57;2.23;;;18.50;99.90;;;;;;4994089;28;20173;-79
2021/05/18 17:03:12;;;;;;;3.43;1.60;;;18.40;1.00;;;;;;4996462;28;20213;-77
2021/05/18 17:05:37;;;;;;;3.80;1.17;;;18.50;1.00;;;;;;5002764;28;20225;-82
2021/05/18 17:08:04;;;;;;;4.17;2.10;;;18.40;1.00;;;;;;4994443;28;20647;-79
2021/05/18 17:10:37;;;;;;;3.63;1.83;;;18.20;99.90;;;;;;4994252;28;20203;-79
2021/05/18 17:13:04;;;;;;;4.70;2.53;;;18.20;1.00;;;;;;5013790;28;20190;-77
2021/05/18 17:15:30;;;;;;;4.00;1.90;;;18.20;99.90;;;;;;5013704;28;20170;-79
2021/05/18 17:17:57;;;;;;;4.90;1.70;;;18.30;99.90;;;;;;5013868;28;20167;-78
2021/05/18 17:20:26;;;;;;;3.67;2.07;;;18.50;1.00;;;;;;5012803;28;20262;-81
2021/05/18 17:22:52;;;;;;;3.43;1.40;;;18.50;99.90;;;;;;5008466;28;20616;-79
2021/05/18 17:25:18;;;;;;;2.70;1.50;;;18.50;99.90;;;;;;5003667;28;20198;-79
2021/05/18 17:27:44;;;;;;;4.00;3.27;;;18.30;99.90;;;;;;5002113;28;20175;-79
2021/05/18 17:30:18;;;;;;;7.70;4.93;;;18.10;99.90;;;;;;5003014;28;20663;-80
2021/05/18 17:32:44;;;;;;;3.90;2.07;;;17.90;99.90;;;;;;5001321;28;20305;-81
2021/05/18 17:35:11;;;;;;;4.17;2.40;;;17.70;99.90;;;;;;4993710;28;20254;-79
2021/05/18 17:37:39;;;;;;;5.80;4.40;;;17.40;1.00;;;;;;4994391;28;20175;-82
2021/05/18 17:40:06;;;;;;;2.77;2.10;;;17.40;99.90;;;;;;4992282;28;20187;-80
2021/05/18 17:42:32;;;;;;;4.57;2.03;;;17.40;1.00;;;;;;4993352;28;20492;-78
2021/05/18 17:45:01;;;;;;;2.83;1.30;;;17.50;1.00;;;;;;4993739;28;20666;-80
2021/05/18 17:47:28;;;;;;;4.53;1.50;;;17.50;41.30;;;;;;4993212;28;20932;-78
2021/05/18 17:49:53;;;;;;;2.33;1.40;;;17.50;99.90;;;;;;4992566;28;20660;-79
2021/05/18 17:52:19;;;;;;;4.90;1.90;;;17.40;1.00;;;;;;4992805;28;20167;-81